createdAt,value
2022-10-18T00:02:20.250Z,100837.00
2022-10-18T00:04:47.312Z,100841.16
2022-10-18T00:07:14.005Z,100834.19
2022-10-18T00:09:40.862Z,100841.28
2022-10-18T00:12:08.119Z,100845.22
2022-10-18T00:14:34.888Z,100851.06
2022-10-18T00:17:01.837Z,100860.66
2022-10-18T00:19:29.373Z,100854.63
2022-10-18T00:21:56.672Z,100852.78
2022-10-18T00:24:23.331Z,100859.00
2022-10-18T00:26:50.079Z,100852.69
2022-10-18T00:29:18.200Z,100860.84
2022-10-18T00:31:45.272Z,100862.66
2022-10-18T00:34:14.559Z,100858.00
2022-10-18T00:36:42.212Z,100860.47
2022-10-18T00:39:16.679Z,100861.69
2022-10-18T00:41:43.984Z,100862.91
2022-10-18T00:44:13.614Z,100864.38
2022-10-18T00:46:45.850Z,100866.81
2022-10-18T00:49:23.353Z,100876.41
2022-10-18T00:51:58.099Z,100881.03
2022-10-18T00:54:26.714Z,100882.84
2022-10-18T00:56:54.121Z,100881.22
2022-10-18T00:59:21.069Z,100875.00
2022-10-18T01:01:47.962Z,100881.47
2022-10-18T01:04:16.838Z,100882.19
2022-10-18T01:06:59.679Z,100878.75
2022-10-18T01:09:39.301Z,100880.22
2022-10-18T01:12:21.059Z,100884.53
2022-10-18T01:14:59.973Z,100889.97
2022-10-18T01:18:05.690Z,100884.34
2022-10-18T01:20:51.395Z,100884.94
2022-10-18T01:23:25.313Z,100884.09
2022-10-18T01:25:55.924Z,100880.06
2022-10-18T01:28:42.806Z,100881.50
2022-10-18T01:31:33.022Z,100880.81
2022-10-18T01:34:07.984Z,100888.16
2022-10-18T01:36:42.199Z,100892.13
2022-10-18T01:39:14.639Z,100899.97
2022-10-18T01:41:44.314Z,100901.69
2022-10-18T01:44:16.018Z,100901.44
2022-10-18T01:46:44.200Z,100908.72
2022-10-18T01:49:10.854Z,100914.09
2022-10-18T01:51:37.540Z,100906.72
2022-10-18T01:54:04.476Z,100911.94
2022-10-18T01:56:49.247Z,100914.41
2022-10-18T01:59:51.173Z,100909.53
2022-10-18T02:02:47.136Z,100909.16
2022-10-18T02:05:19.711Z,100908.31
2022-10-18T02:08:12.015Z,100909.63
2022-10-18T02:10:43.414Z,100909.63
2022-10-18T02:13:13.105Z,100908.44
2022-10-18T02:15:44.342Z,100910.47
2022-10-18T02:18:35.483Z,100911.44
2022-10-18T02:21:05.540Z,100916.69
2022-10-18T02:23:33.911Z,100914.06
2022-10-18T02:26:01.212Z,100912.28
2022-10-18T02:28:28.140Z,100910.59
2022-10-18T02:31:28.768Z,100908.44
2022-10-18T02:33:58.155Z,100920.16
2022-10-18T02:36:46.615Z,100922.94
2022-10-18T02:39:18.346Z,100917.06
2022-10-18T02:41:45.146Z,100912.56
2022-10-18T02:44:11.818Z,100921.19
2022-10-18T02:46:39.447Z,100926.69
2022-10-18T02:49:06.366Z,100923.44
2022-10-18T02:51:33.297Z,100931.84
2022-10-18T02:54:00.067Z,100934.22
2022-10-18T02:56:26.691Z,100947.25
2022-10-18T02:58:53.362Z,100943.41
2022-10-18T03:01:20.226Z,100940.84
2022-10-18T03:03:46.939Z,100943.19
2022-10-18T03:06:13.571Z,100937.66
2022-10-18T03:08:40.290Z,100950.69
2022-10-18T03:11:07.091Z,100934.44
2022-10-18T03:13:36.440Z,100952.88
2022-10-18T03:18:47.515Z,100953.94
2022-10-18T03:21:14.158Z,100957.56
2022-10-18T03:23:42.290Z,100965.56
2022-10-18T03:26:09.447Z,100966.59
2022-10-18T03:28:36.276Z,100964.78
2022-10-18T03:31:06.140Z,100954.13
2022-10-18T03:33:33.388Z,100960.38
2022-10-18T03:36:00.470Z,100969.75
2022-10-18T03:38:27.200Z,100977.69
2022-10-18T03:40:53.887Z,100975.38
2022-10-18T03:43:20.725Z,100975.16
2022-10-18T03:45:49.825Z,100976.69
2022-10-18T03:48:16.498Z,100971.41
2022-10-18T03:50:44.031Z,100975.97
2022-10-18T03:53:10.735Z,100986.94
2022-10-18T03:55:37.786Z,100983.22
2022-10-18T03:58:04.425Z,100991.78
2022-10-18T04:00:31.158Z,100988.41
2022-10-18T04:02:57.860Z,100987.78
2022-10-18T04:05:26.849Z,100990.00
2022-10-18T04:07:54.801Z,100982.84
2022-10-18T04:10:21.541Z,100987.63
2022-10-18T04:12:48.236Z,100977.78
2022-10-18T04:15:14.979Z,100976.56
2022-10-18T04:17:42.379Z,100978.63
2022-10-18T04:20:09.885Z,100979.28
2022-10-18T04:22:36.534Z,100990.50
2022-10-18T04:25:04.298Z,100992.06
2022-10-18T04:27:31.877Z,100994.69
2022-10-18T04:29:58.792Z,101003.47
2022-10-18T04:32:27.919Z,101001.44
2022-10-18T04:34:54.539Z,101008.25
2022-10-18T04:37:21.211Z,101007.88
2022-10-18T04:39:51.273Z,101007.22
2022-10-18T04:42:20.540Z,101012.00
2022-10-18T04:44:47.323Z,101018.97
2022-10-18T04:47:13.936Z,101013.69
2022-10-18T04:49:41.695Z,101016.38
2022-10-18T04:52:08.774Z,101015.69
2022-10-18T04:54:35.713Z,101015.41
2022-10-18T04:57:03.501Z,101022.88
2022-10-18T04:59:30.300Z,101022.06
2022-10-18T05:01:57.073Z,101016.47
2022-10-18T05:04:23.839Z,101014.75
2022-10-18T05:06:50.506Z,101013.91
2022-10-18T05:09:17.144Z,101014.91
2022-10-18T05:11:43.843Z,101018.16
2022-10-18T05:14:10.986Z,101023.22
2022-10-18T05:16:37.781Z,101022.59
2022-10-18T05:19:05.950Z,101008.38
2022-10-18T05:21:33.752Z,101014.16
2022-10-18T05:24:00.551Z,101017.53
2022-10-18T05:26:28.123Z,101019.59
2022-10-18T05:28:55.216Z,101022.63
2022-10-18T05:31:22.053Z,101025.03
2022-10-18T05:33:49.244Z,101024.00
2022-10-18T05:36:16.139Z,101022.31
2022-10-18T05:38:44.090Z,101030.78
2022-10-18T05:41:11.676Z,101031.13
2022-10-18T05:43:39.232Z,101028.13
2022-10-18T05:46:11.901Z,101029.16
2022-10-18T05:48:42.183Z,101025.44
2022-10-18T05:51:08.870Z,101032.72
2022-10-18T05:53:37.815Z,101044.41
2022-10-18T05:56:05.860Z,101038.66
2022-10-18T05:58:34.521Z,101044.09
2022-10-18T06:01:02.476Z,101049.19
2022-10-18T06:03:31.011Z,101054.59
2022-10-18T06:06:07.840Z,101050.56
2022-10-18T06:08:35.211Z,101046.81
2022-10-18T06:11:18.830Z,101045.09
2022-10-18T06:13:47.858Z,101033.03
2022-10-18T06:16:16.941Z,101032.25
2022-10-18T06:18:47.231Z,101033.25
2022-10-18T06:21:13.880Z,101040.03
2022-10-18T06:23:40.938Z,101038.19
2022-10-18T06:26:10.016Z,101038.72
2022-10-18T06:28:38.081Z,101036.00
2022-10-18T06:31:05.534Z,101043.81
2022-10-18T06:33:34.276Z,101040.72
2022-10-18T06:36:03.276Z,101034.28
2022-10-18T06:38:30.913Z,101041.06
2022-10-18T06:41:01.336Z,101040.38
2022-10-18T06:43:28.160Z,101039.19
2022-10-18T06:45:55.572Z,101050.22
2022-10-18T06:48:24.622Z,101060.75
2022-10-18T06:50:57.146Z,101041.03
2022-10-18T06:53:25.497Z,101050.38
2022-10-18T06:55:52.769Z,101048.16
2022-10-18T06:58:19.453Z,101051.25
2022-10-18T07:00:47.028Z,101041.22
2022-10-18T07:03:13.688Z,101050.56
2022-10-18T07:05:40.340Z,101046.66
2022-10-18T07:08:07.066Z,101052.59
2022-10-18T07:10:33.841Z,101053.41
2022-10-18T07:13:20.004Z,101053.25
2022-10-18T07:15:47.216Z,101051.38
2022-10-18T07:18:14.258Z,101061.19
2022-10-18T07:20:41.035Z,101057.59
2022-10-18T07:23:09.618Z,101060.63
2022-10-18T07:25:36.285Z,101065.72
2022-10-18T07:28:03.652Z,101083.88
2022-10-18T07:30:33.865Z,101087.75
2022-10-18T07:33:00.535Z,101085.03
2022-10-18T07:35:27.675Z,101086.69
2022-10-18T07:37:54.337Z,101085.63
2022-10-18T07:40:21.149Z,101080.16
2022-10-18T07:42:48.287Z,101089.09
2022-10-18T07:45:14.943Z,101098.75
2022-10-18T07:47:41.870Z,101095.34
2022-10-18T07:50:09.083Z,101096.44
2022-10-18T07:52:35.999Z,101105.72
2022-10-18T07:55:02.772Z,101110.44
2022-10-18T07:57:29.687Z,101114.28
2022-10-18T07:59:56.895Z,101125.59
2022-10-18T08:02:27.060Z,101120.97
2022-10-18T08:04:53.655Z,101114.94
2022-10-18T08:07:20.324Z,101126.75
2022-10-18T08:09:47.133Z,101128.00
2022-10-18T08:12:15.716Z,101122.13
2022-10-18T08:14:43.925Z,101127.78
2022-10-18T08:17:10.732Z,101128.66
2022-10-18T08:19:37.507Z,101130.25
2022-10-18T08:22:04.200Z,101130.47
2022-10-18T08:24:31.166Z,101136.75
2022-10-18T08:26:57.816Z,101134.56
2022-10-18T08:29:27.012Z,101143.97
2022-10-18T08:31:56.055Z,101144.97
2022-10-18T08:34:22.895Z,101141.41
2022-10-18T08:36:49.518Z,101142.03
2022-10-18T08:39:16.161Z,101151.13
2022-10-18T08:42:24.625Z,101162.19
2022-10-18T08:44:54.252Z,101174.78
2022-10-18T08:47:40.175Z,101169.50
2022-10-18T08:50:20.295Z,101179.94
2022-10-18T08:53:20.294Z,101177.41
2022-10-18T08:55:55.344Z,101179.66
2022-10-18T08:58:26.652Z,101175.06
2022-10-18T09:01:32.644Z,101183.97
2022-10-18T09:04:11.516Z,101185.91
2022-10-18T09:06:47.992Z,101190.38
2022-10-18T09:09:45.623Z,101190.22
2022-10-18T09:12:31.873Z,101182.06
2022-10-18T09:15:20.338Z,101188.84
2022-10-18T09:18:08.272Z,101192.91
2022-10-18T09:20:47.935Z,101195.47
2022-10-18T09:23:23.165Z,101196.72
2022-10-18T09:26:22.487Z,101200.75
2022-10-18T09:29:07.740Z,101198.44
2022-10-18T09:31:56.732Z,101202.84
2022-10-18T09:34:37.219Z,101208.72
2022-10-18T09:37:04.800Z,101203.66
2022-10-18T09:39:37.060Z,101199.56
2022-10-18T09:42:11.563Z,101206.97
2022-10-18T09:44:42.034Z,101208.41
2022-10-18T09:47:17.097Z,101211.75
2022-10-18T09:49:51.610Z,101205.81
2022-10-18T09:52:30.762Z,101215.06
2022-10-18T09:55:02.314Z,101218.41
2022-10-18T09:57:52.384Z,101213.28
2022-10-18T10:00:26.019Z,101215.78
2022-10-18T10:02:52.741Z,101222.91
2022-10-18T10:05:19.993Z,101223.25
2022-10-18T10:07:49.230Z,101219.38
2022-10-18T10:10:25.086Z,101214.06
2022-10-18T10:13:17.862Z,101221.41
2022-10-18T10:15:54.489Z,101215.88
2022-10-18T10:18:28.373Z,101215.41
2022-10-18T10:21:00.979Z,101219.16
2022-10-18T10:23:45.362Z,101214.38
2022-10-18T10:26:32.474Z,101212.84
2022-10-18T10:29:00.834Z,101218.94
2022-10-18T10:31:30.819Z,101211.91
2022-10-18T10:34:06.595Z,101216.34
2022-10-18T10:36:35.135Z,101211.25
2022-10-18T10:39:12.954Z,101221.13
2022-10-18T10:41:41.282Z,101221.94
2022-10-18T10:44:20.410Z,101228.44
2022-10-18T10:46:49.459Z,101221.19
2022-10-18T10:52:33.767Z,101219.66
2022-10-18T10:55:16.737Z,101218.13
2022-10-18T10:57:51.241Z,101209.19
2022-10-18T11:00:43.021Z,101208.66
2022-10-18T11:03:28.600Z,101210.97
2022-10-18T11:05:57.974Z,101198.78
2022-10-18T11:08:30.536Z,101199.31
2022-10-18T11:11:30.716Z,101198.16
2022-10-18T11:14:26.556Z,101197.47
2022-10-18T11:17:14.572Z,101193.41
2022-10-18T11:20:11.687Z,101188.75
2022-10-18T11:23:12.414Z,101186.13
2022-10-18T11:26:02.075Z,101189.50
2022-10-18T11:29:10.221Z,101184.13
2022-10-18T11:31:43.674Z,101180.91
2022-10-18T11:34:29.388Z,101178.03
2022-10-18T11:37:27.300Z,101169.31
2022-10-18T11:40:16.033Z,101182.25
2022-10-18T11:43:04.418Z,101179.63
2022-10-18T11:46:03.968Z,101176.44
2022-10-18T11:48:46.045Z,101169.00
2022-10-18T11:51:15.377Z,101164.00
2022-10-18T11:54:03.584Z,101169.75
2022-10-18T12:01:12.295Z,101173.25
2022-10-18T12:04:08.164Z,101175.53
2022-10-18T12:06:38.890Z,101171.59
2022-10-18T12:09:32.958Z,101166.47
2022-10-18T12:12:31.792Z,101151.72
2022-10-18T12:15:19.870Z,101155.69
2022-10-18T12:17:59.577Z,101157.22
2022-10-18T12:20:36.794Z,101152.47
2022-10-18T12:23:03.434Z,101160.88
2022-10-18T12:25:36.993Z,101159.53
2022-10-18T12:28:16.071Z,101159.31
2022-10-18T12:30:52.334Z,101159.31
2022-10-18T12:33:28.252Z,101158.81
2022-10-18T12:36:21.502Z,101155.34
2022-10-18T12:38:58.698Z,101157.63
2022-10-18T12:41:28.853Z,101160.38
2022-10-18T12:44:06.860Z,101146.59
2022-10-18T12:46:48.687Z,101146.00
2022-10-18T12:49:22.855Z,101139.28
2022-10-18T12:52:00.210Z,101145.50
2022-10-18T12:54:30.803Z,101138.91
2022-10-18T12:56:59.522Z,101147.28
2022-10-18T12:59:26.816Z,101144.19
2022-10-18T13:01:53.527Z,101129.56
2022-10-18T13:04:33.553Z,101146.94
2022-10-18T13:07:07.925Z,101136.63
2022-10-18T13:09:40.122Z,101126.78
2022-10-18T13:12:09.834Z,101122.09
2022-10-18T13:15:12.500Z,101133.13
2022-10-18T13:17:53.733Z,101116.09
2022-10-18T13:20:40.187Z,101099.88
2022-10-18T13:23:40.964Z,101107.44
2022-10-18T13:26:23.088Z,101107.44
2022-10-18T13:29:13.865Z,101100.84
2022-10-18T13:32:00.853Z,101097.25
2022-10-18T13:34:39.127Z,101095.66
2022-10-18T13:37:11.895Z,101097.94
2022-10-18T13:39:40.141Z,101094.34
2022-10-18T13:42:15.899Z,101095.53
2022-10-18T13:44:46.673Z,101096.13
2022-10-18T13:47:16.004Z,101088.09
2022-10-18T13:49:59.486Z,101083.31
2022-10-18T13:52:36.727Z,101090.03
2022-10-18T13:55:25.304Z,101090.94
2022-10-18T13:58:19.029Z,101073.66
2022-10-18T14:01:04.541Z,101077.50
2022-10-18T14:04:03.173Z,101080.75
2022-10-18T14:06:41.739Z,101084.59
2022-10-18T14:09:45.107Z,101078.72
2022-10-18T14:12:31.580Z,101074.03
2022-10-18T14:15:07.602Z,101078.97
2022-10-18T14:17:43.857Z,101078.38
2022-10-18T14:20:29.454Z,101077.88
2022-10-18T14:23:11.181Z,101086.25
2022-10-18T14:25:38.873Z,101080.75
2022-10-18T14:28:21.703Z,101092.78
2022-10-18T14:31:02.082Z,101081.75
2022-10-18T14:33:28.725Z,101088.09
2022-10-18T14:36:01.555Z,101094.69
2022-10-18T14:38:29.313Z,101096.38
2022-10-18T14:41:17.292Z,101095.53
2022-10-18T14:43:44.674Z,101088.34
2022-10-18T14:46:33.750Z,101084.16
2022-10-18T14:49:04.384Z,101077.22
2022-10-18T14:51:35.689Z,101079.09
2022-10-18T14:54:02.955Z,101071.91
2022-10-18T14:56:32.927Z,101072.16
2022-10-18T14:59:11.664Z,101068.81
2022-10-18T15:01:39.387Z,101075.66
2022-10-18T15:04:11.677Z,101076.97
2022-10-18T15:06:43.655Z,101073.84
2022-10-18T15:09:12.965Z,101068.03
2022-10-18T15:11:41.543Z,101066.56
2022-10-18T15:14:16.426Z,101065.16
2022-10-18T15:16:43.262Z,101060.47
2022-10-18T15:19:16.002Z,101048.25
2022-10-18T15:22:30.346Z,101050.41
2022-10-18T15:25:11.337Z,101049.09
2022-10-18T15:27:39.799Z,101048.97
2022-10-18T15:30:23.338Z,101051.38
2022-10-18T15:32:55.953Z,101045.50
2022-10-18T15:35:34.896Z,101050.66
2022-10-18T15:38:26.073Z,101054.97
2022-10-18T15:40:53.034Z,101062.66
2022-10-18T15:43:25.758Z,101072.50
2022-10-18T15:46:03.425Z,101061.94
2022-10-18T15:48:42.105Z,101058.81
2022-10-18T15:51:26.746Z,101073.34
2022-10-18T15:53:54.389Z,101069.38
2022-10-18T15:56:34.514Z,101076.25
2022-10-18T15:59:04.687Z,101067.84
2022-10-18T16:01:51.787Z,101070.94
2022-10-18T16:04:21.569Z,101075.38
2022-10-18T16:06:48.318Z,101069.75
2022-10-18T16:09:20.673Z,101078.97
2022-10-18T16:11:55.570Z,101099.22
2022-10-18T16:14:24.817Z,101090.81
2022-10-18T16:16:55.275Z,101087.34
2022-10-18T16:19:25.044Z,101081.34
2022-10-18T16:21:53.852Z,101085.03
2022-10-18T16:24:21.518Z,101091.63
2022-10-18T16:26:48.671Z,101091.63
2022-10-18T16:29:25.829Z,101088.28
2022-10-18T16:31:55.321Z,101077.16
2022-10-18T16:34:21.964Z,101089.72
2022-10-18T16:36:49.087Z,101080.44
2022-10-18T16:39:20.838Z,101084.16
2022-10-18T16:41:48.157Z,101088.06
2022-10-18T16:44:16.492Z,101088.19
2022-10-18T16:46:44.318Z,101083.97
2022-10-18T16:51:52.978Z,101091.50
2022-10-18T16:54:20.016Z,101096.41
2022-10-18T16:56:47.899Z,101094.00
2022-10-18T16:59:30.411Z,101087.88
2022-10-18T17:01:57.505Z,101084.53
2022-10-18T17:04:24.347Z,101085.44
2022-10-18T17:06:52.768Z,101091.88
2022-10-18T17:09:19.434Z,101092.72
2022-10-18T17:11:46.057Z,101087.47
2022-10-18T17:14:12.952Z,101092.97
2022-10-18T17:16:39.574Z,101092.34
2022-10-18T17:19:12.115Z,101087.78
2022-10-18T17:21:38.783Z,101091.13
2022-10-18T17:24:06.300Z,101095.72
2022-10-18T17:26:33.779Z,101098.91
2022-10-18T17:29:05.990Z,101094.50
2022-10-18T17:31:33.194Z,101100.94
2022-10-18T17:34:01.765Z,101094.22
2022-10-18T17:36:30.271Z,101099.31
2022-10-18T17:38:57.468Z,101098.06
2022-10-18T17:41:24.193Z,101096.59
2022-10-18T17:43:50.874Z,101107.47
2022-10-18T17:46:18.073Z,101109.91
2022-10-18T17:48:45.671Z,101105.50
2022-10-18T17:51:15.043Z,101118.00
2022-10-18T17:53:41.755Z,101116.19
2022-10-18T17:56:08.901Z,101123.88
2022-10-18T17:58:35.918Z,101125.25
2022-10-18T18:01:22.010Z,101118.50
2022-10-18T18:03:49.084Z,101126.19
2022-10-18T18:06:18.897Z,101118.09
2022-10-18T18:08:46.146Z,101117.56
2022-10-18T18:11:13.549Z,101111.63
2022-10-18T18:13:40.299Z,101126.84
2022-10-18T18:16:14.864Z,101126.75
2022-10-18T18:18:42.111Z,101124.66
2022-10-18T18:21:09.067Z,101123.41
2022-10-18T18:23:36.376Z,101129.78
2022-10-18T18:26:03.448Z,101133.19
2022-10-18T18:28:30.280Z,101132.84
2022-10-18T18:30:56.968Z,101127.13
2022-10-18T18:33:23.655Z,101126.94
2022-10-18T18:35:59.315Z,101133.69
2022-10-18T18:38:26.380Z,101131.44
2022-10-18T18:41:23.556Z,101128.88
2022-10-18T18:43:56.243Z,101129.56
2022-10-18T18:46:24.258Z,101136.50
2022-10-18T18:48:50.979Z,101140.53
2022-10-18T18:51:20.376Z,101130.63
2022-10-18T18:53:48.803Z,101124.53
2022-10-18T18:56:18.553Z,101115.06
2022-10-18T18:58:46.343Z,101117.38
2022-10-18T19:01:17.443Z,101114.41
2022-10-18T19:03:45.436Z,101117.56
2022-10-18T19:06:15.923Z,101112.31
2022-10-18T19:08:46.365Z,101111.66
2022-10-18T19:11:18.191Z,101103.00
2022-10-18T19:13:45.679Z,101096.03
2022-10-18T19:16:20.154Z,101101.75
2022-10-18T19:19:07.421Z,101099.41
2022-10-18T19:21:36.870Z,101104.06
2022-10-18T19:24:05.015Z,101111.72
2022-10-18T19:26:45.490Z,101106.91
2022-10-18T19:29:17.864Z,101103.16
2022-10-18T19:31:45.646Z,101106.31
2022-10-18T19:34:14.164Z,101108.66
2022-10-18T19:36:43.243Z,101105.66
2022-10-18T19:39:16.274Z,101108.41
2022-10-18T19:41:43.034Z,101102.09
2022-10-18T19:44:09.656Z,101108.41
2022-10-18T19:46:36.356Z,101109.47
2022-10-18T19:49:03.023Z,101113.56
2022-10-18T19:51:29.781Z,101111.66
2022-10-18T19:53:57.559Z,101111.84
2022-10-18T19:56:25.599Z,101103.63
2022-10-18T19:58:52.661Z,101098.13
2022-10-18T20:01:20.293Z,101103.25
2022-10-18T20:03:47.405Z,101119.91
2022-10-18T20:06:15.007Z,101119.28
2022-10-18T20:11:12.379Z,101107.72
2022-10-18T20:13:39.572Z,101108.34
2022-10-18T20:16:08.826Z,101104.13
2022-10-18T20:18:36.387Z,101099.13
2022-10-18T20:21:07.703Z,101099.53
2022-10-18T20:23:38.835Z,101095.31
2022-10-18T20:26:20.525Z,101097.88
2022-10-18T20:28:49.406Z,101092.84
2022-10-18T20:31:19.031Z,101096.19
2022-10-18T20:33:47.271Z,101096.44
2022-10-18T20:36:15.202Z,101094.16
2022-10-18T20:38:44.116Z,101107.22
2022-10-18T20:41:13.699Z,101105.97
2022-10-18T20:43:40.775Z,101111.91
2022-10-18T20:46:09.276Z,101112.75
2022-10-18T20:48:36.695Z,101111.09
2022-10-18T20:51:09.139Z,101128.78
2022-10-18T20:53:36.792Z,101124.78
2022-10-18T20:56:05.690Z,101125.84
2022-10-18T20:58:33.670Z,101127.34
2022-10-18T21:01:21.147Z,101122.09
2022-10-18T21:03:49.855Z,101115.34
2022-10-18T21:06:25.426Z,101125.47
2022-10-18T21:09:03.385Z,101120.41
2022-10-18T21:11:34.443Z,101128.25
2022-10-18T21:14:05.488Z,101118.97
2022-10-18T21:16:35.229Z,101120.88
2022-10-18T21:19:10.845Z,101115.19
2022-10-18T21:21:37.670Z,101120.44
2022-10-18T21:24:07.771Z,101115.19
2022-10-18T21:26:35.218Z,101116.03
2022-10-18T21:29:02.696Z,101113.50
2022-10-18T21:31:39.388Z,101115.41
2022-10-18T21:34:18.311Z,101115.19
2022-10-18T21:36:47.754Z,101110.13
2022-10-18T21:39:17.615Z,101114.97
2022-10-18T21:41:45.020Z,101109.50
2022-10-18T21:44:13.165Z,101104.88
2022-10-18T21:46:42.937Z,101091.81
2022-10-18T21:49:10.555Z,101098.13
2022-10-18T21:51:38.138Z,101095.63
2022-10-18T21:54:07.635Z,101094.56
2022-10-18T21:56:35.974Z,101074.31
2022-10-18T21:59:03.705Z,101069.91
2022-10-18T22:01:35.935Z,101068.19
2022-10-18T22:04:05.299Z,101074.97
2022-10-18T22:09:08.431Z,101065.69
2022-10-18T22:11:45.207Z,101058.94
2022-10-18T22:14:12.050Z,101071.56
2022-10-18T22:16:38.799Z,101064.63
2022-10-18T22:19:06.520Z,101061.47
2022-10-18T22:21:33.813Z,101065.25
2022-10-18T22:24:03.579Z,101064.19
2022-10-18T22:26:35.846Z,101065.25
2022-10-18T22:29:06.254Z,101058.06
2022-10-18T22:31:36.540Z,101053.25
2022-10-18T22:34:07.232Z,101049.00
2022-10-18T22:36:34.676Z,101053.00
2022-10-18T22:39:01.828Z,101059.34
2022-10-18T22:41:28.668Z,101054.28
2022-10-18T22:43:57.426Z,101057.00
2022-10-18T22:46:26.874Z,101057.25
2022-10-18T22:48:54.140Z,101055.09
2022-10-18T22:51:20.914Z,101056.59
2022-10-18T22:53:47.573Z,101061.03
2022-10-18T22:56:17.523Z,101048.38
2022-10-18T22:58:44.390Z,101055.56
2022-10-18T23:01:14.324Z,101055.09
2022-10-18T23:03:41.126Z,101061.88
2022-10-18T23:06:20.202Z,101055.53
2022-10-18T23:08:47.331Z,101054.28
2022-10-18T23:11:14.176Z,101057.84
2022-10-18T23:13:40.843Z,101053.84
2022-10-18T23:16:09.091Z,101054.50
2022-10-18T23:18:36.165Z,101063.97
2022-10-18T23:21:04.317Z,101055.16
2022-10-18T23:23:34.905Z,101057.25
2022-10-18T23:26:06.836Z,101052.59
2022-10-18T23:28:35.897Z,101051.13
2022-10-18T23:31:23.477Z,101059.75
2022-10-18T23:33:52.577Z,101057.44
2022-10-18T23:36:20.036Z,101053.47
2022-10-18T23:38:46.790Z,101052.84
2022-10-18T23:41:15.088Z,101057.69
2022-10-18T23:43:42.707Z,101053.28
2022-10-18T23:46:10.134Z,101049.94
2022-10-18T23:48:37.020Z,101039.78
2022-10-18T23:51:04.209Z,101042.09
2022-10-18T23:53:31.678Z,101043.38
2022-10-18T23:56:00.932Z,101037.91
2022-10-18T23:58:28.719Z,101031.16
